x

Eel River - 17nm Wsw Of Eureka, Ca (46022) Wave Buoy

8:50pm - Wed 24th May 2017 All times are PDT. -7 hours from GMT.

  • Sig Wave height 14.8ft
  • Swell Direction
  • Peak Period 10s
  • Average Period 8s
  • Wind
    20mph, 25mph gusts
  • Sea Temp 52°f
  • Air Temp 53°f
  • Sea Pressure 1008.5mb
  • Eel River - 17nm Wsw Of Eureka, Ca
  • Eel River - 17nm Wsw Of Eureka, Ca

More Historic Weather Station data

Upgrade to MSW Pro to gain access to the past 30 days of data for over 8000 Wavebouys and Weather Stations around the globe.

Join Pro

Comparision Forecast

View Surf forecast
   
Wed 05/24 8:50pm 15ft 10s 8s 20 25 mph 1008.5mb 52f 53f
7:50pm 14ft 10s 8s 16 20 mph 1008.7mb 52f 53f
6:50pm 14ft 11s 8s 18 22 mph 1009.2mb 51f 53f
5:50pm 15.5ft 10s 8s 18 25 mph 1009.6mb 51f 53f
4:50pm 15ft 11s 8s 18 22 mph 1010.1mb 51f 53f
3:50pm 14.5ft 11s 8s 18 22 mph 1010.5mb 52f 53f
2:50pm 15.5ft 10s 8s 20 22 mph 1011mb 52f 52f
1:50pm 15ft 10s 8s 22 27 mph 1011mb 52f 52f
12:50pm 14ft 10s 8s 20 25 mph 1011.2mb 51f 52f
11:50am 14ft 10s 8s 20 25 mph 1011.2mb 51f 52f
10:50am 13ft 11s 8s 22 27 mph 1011.3mb 51f 52f
9:50am 14.5ft 10s 8s 22 29 mph 1011.4mb 51f 51f
8:50am 13ft 10s 7s 27 31 mph 1011.2mb 51f 51f
7:50am 13.5ft 10s 8s 25 31 mph 1011.4mb 51f 51f
6:50am 12ft 10s 7s 25 31 mph 1011.4mb 51f 52f
5:50am 13ft 10s 7s 25 29 mph 1011.5mb 52f 51f
4:50am 11.5ft 9s 7s 27 34 mph 1011.6mb 52f 52f
3:50am 13ft 9s 7s 27 34 mph 1011.7mb 52f 52f
2:50am 11ft 9s 7s 29 36 mph 1011.7mb 52f 52f
1:50am 13ft 10s 7s 27 34 mph 1012.4mb 52f 53f
12:50am 12ft 10s 7s 22 27 mph 1013mb 52f 53f
Tue 05/23 11:50pm 13.5ft 9s 8s 18 22 mph 1013.8mb 52f 53f
10:50pm 11.5ft 9s 8s 20 25 mph 1014.3mb 53f 53f
9:50pm 11ft 9s 7s 20 25 mph 1014.4mb 53f 54f
8:50pm 10.5ft 9s 7s 20 22 mph 1014.2mb 53f 54f
7:50pm 9ft 8s 7s 16 20 mph 1014.2mb 53f 54f
6:50pm 9.5ft 9s 7s 13 16 mph 1014.7mb 52f 54f
5:50pm 8.5ft 8s 6s 20 25 mph 1014.8mb 52f 54f
4:50pm 8ft 8s 6s 22 25 mph 1015.1mb 53f 54f
3:50pm 7.5ft 8s 6s 20 25 mph 1015.4mb 53f 54f
2:50pm 7ft 8s 6s 16 20 mph 1015.7mb 53f 54f
1:50pm 7.5ft 8s 6s 13 16 mph 1015.8mb 53f 54f
12:50pm 7.5ft 8s 7s 13 18 mph 1015.6mb 53f 54f
11:50am 6.5ft 15s 7s 13 16 mph 1015.7mb 53f 53f
10:50am 6ft 8s 6s 11 13 mph 1015.4mb 53f 54f
9:50am 5ft 8s 6s 11 13 mph 1015mb 52f 53f
8:50am 5ft 7s 6s 9 11 mph 1014.8mb 52f 54f
7:50am 6ft 7s 6s 16 18 mph 1014.4mb 53f 53f
6:50am 5.5ft 8s 6s 13 16 mph 1014.1mb 52f 53f
5:50am 5ft 7s 6s 11 13 mph 1013.9mb 53f 53f
4:50am 5.5ft 8s 6s 11 13 mph 1013.7mb 53f 53f
3:50am 5ft 8s 6s 7 9 mph 1013.6mb 53f 53f
2:50am 5ft 8s 6s 9 9 mph 1013.5mb 53f 53f
1:50am 4.5ft 7s 6s 9 9 mph 1013.9mb 53f 54f
12:50am 5ft 7s 6s 7 7 mph 1014.3mb 53f 54f
Mon 05/22 11:50pm 4.5ft 8s 6s 9 11 mph 1014.6mb 53f 54f
10:50pm 4.5ft 8s 6s 7 9 mph 1015mb 54f 54f
9:50pm 4.5ft 7s 6s 7 9 mph 1014.9mb 54f 55f
8:50pm 4.5ft 7s 6s 9 11 mph 1014.8mb 54f 55f
7:50pm 5ft 9s 6s 7 9 mph 1014.6mb 55f 55f
6:50pm 5ft 8s 6s 4 4 mph 1014.5mb 55f 56f
5:50pm 5ft 8s 6s 4 4 mph 1015mb 55f 56f
4:50pm 5ft 8s 6s 4 4 mph 1015.3mb 54f 55f
3:50pm 5.5ft 8s 6s 4 7 mph 1015.4mb 54f 55f
2:50pm 6ft 8s 6s 2 4 mph 1015.4mb 53f 52f
1:50pm 5.5ft 8s 6s 7 9 mph 1015.2mb 53f 52f
12:50pm 6ft 7s 6s 11 13 mph 1015.1mb 53f 52f
11:50am 6.5ft 7s 6s 16 18 mph 1015.1mb 53f 52f
10:50am 6ft 7s 6s 16 18 mph 1015.2mb 52f 51f
9:50am 6ft 8s 6s 16 16 mph 1015.3mb 52f 51f
8:50am 5.5ft 8s 6s 13 16 mph 1015.3mb 52f 51f
7:50am 5ft 7s 6s 13 16 mph 1015mb 52f 50f
6:50am 6ft 8s 6s 13 16 mph 1014.8mb 52f 50f
5:50am 5.5ft 8s 6s 16 18 mph 1014.4mb 52f 51f
4:50am 6ft 8s 6s 13 18 mph 1014.3mb 52f 52f
3:50am 6ft 8s 6s 11 16 mph 1014.4mb 52f 52f
2:50am 6ft 8s 6s 13 13 mph 1014.5mb 52f 53f
1:50am 5.5ft 8s 6s 9 11 mph 1014.9mb 52f 53f
12:50am 5.5ft 8s 6s 9 13 mph 1015.2mb 52f 53f
Sun 05/21 11:50pm 6.5ft 7s 6s 9 9 mph 1015.7mb 52f 54f
10:50pm 6ft 8s 6s 7 7 mph 1016.2mb 52f 53f
9:50pm 6ft 8s 6s 7 9 mph 1015.9mb 52f 53f
8:50pm 6.5ft 8s 6s 9 11 mph 1015.6mb 52f 53f
7:50pm 6ft 8s 6s 11 11 mph 1015.3mb 53f 54f
6:50pm 6ft 8s 6s 9 9 mph 1015.4mb 52f 54f
5:50pm 6ft 8s 6s 7 9 mph 1015.8mb 52f 54f
4:50pm 6ft 8s 6s 9 11 mph 1015.8mb 52f 53f
3:50pm 6.5ft 8s 6s 11 11 mph 1016.2mb 52f 52f
2:50pm 6ft 7s 6s 13 16 mph 1016.5mb 52f 52f
1:50pm 7ft 8s 6s 11 11 mph 1016.3mb 51f 50f
12:50pm 7ft 8s 6s 13 20 mph 1016.2mb 51f 50f
11:50am 8ft 8s 7s 16 20 mph 1016.1mb 51f 50f
10:50am 7.5ft 8s 6s 16 20 mph 1016mb 51f 50f
9:50am 8ft 8s 6s 16 20 mph 1016.1mb 51f 50f
8:50am 7ft 8s 6s 16 18 mph 1016.1mb 51f 50f
7:50am 7.5ft 8s 6s 11 13 mph 1016.2mb 51f 50f
6:50am 8ft 8s 6s 16 18 mph 1016mb 51f 49f
5:50am 9.5ft 8s 7s 18 20 mph 1015.4mb 51f 49f